createdAt,value
2018-07-02T00:00:38.440Z,52.72
2018-07-02T00:03:08.333Z,52.63
2018-07-02T00:05:48.557Z,51.29
2018-07-02T00:08:18.339Z,51.25
2018-07-02T00:10:47.811Z,52.11
2018-07-02T00:13:17.270Z,51.56
2018-07-02T00:15:49.322Z,51.03
2018-07-02T00:18:19.009Z,50.43
2018-07-02T00:20:52.175Z,50.87
2018-07-02T00:23:22.563Z,51.27
2018-07-02T00:25:51.383Z,49.62
2018-07-02T00:28:20.191Z,51.09
2018-07-02T00:30:50.265Z,50.25
2018-07-02T00:33:21.404Z,52.00
2018-07-02T00:35:51.110Z,52.79
2018-07-02T00:38:20.553Z,53.33
2018-07-02T00:40:50.519Z,53.63
2018-07-02T00:43:19.132Z,53.72
2018-07-02T00:45:49.227Z,54.57
2018-07-02T00:48:18.475Z,53.80
2018-07-02T00:50:46.958Z,54.23
2018-07-02T00:53:15.633Z,54.73
2018-07-02T00:55:45.274Z,54.53
2018-07-02T00:58:15.102Z,55.74
2018-07-02T01:00:43.905Z,55.16
2018-07-02T01:03:13.300Z,55.53
2018-07-02T01:05:42.646Z,55.89
2018-07-02T01:08:12.633Z,56.79
2018-07-02T01:10:42.681Z,57.72
2018-07-02T01:13:12.209Z,57.86
2018-07-02T01:15:42.125Z,57.68
2018-07-02T01:18:12.261Z,57.13
2018-07-02T01:20:43.233Z,57.19
2018-07-02T01:23:12.112Z,56.67
2018-07-02T01:25:41.649Z,56.67
2018-07-02T01:28:15.741Z,56.83
2018-07-02T01:30:45.333Z,57.09
2018-07-02T01:33:15.701Z,56.60
2018-07-02T01:35:45.238Z,57.40
2018-07-02T01:38:14.852Z,56.25
2018-07-02T01:40:43.614Z,56.65
2018-07-02T01:43:12.975Z,56.18
2018-07-02T01:45:42.105Z,56.68
2018-07-02T01:48:11.529Z,55.81
2018-07-02T01:50:41.674Z,55.95
2018-07-02T01:53:13.906Z,55.39
2018-07-02T01:55:42.443Z,55.42
2018-07-02T01:58:12.817Z,56.68
2018-07-02T02:00:42.214Z,55.73
2018-07-02T02:03:12.223Z,54.97
2018-07-02T02:05:41.155Z,56.51
2018-07-02T02:08:11.333Z,56.31
2018-07-02T02:10:41.472Z,57.69
2018-07-02T02:13:10.704Z,57.32
2018-07-02T02:15:39.573Z,57.97
2018-07-02T02:18:08.958Z,57.31
2018-07-02T02:20:38.720Z,58.49
2018-07-02T02:23:07.395Z,56.36
2018-07-02T02:25:36.981Z,56.70
2018-07-02T02:28:09.501Z,57.91
2018-07-02T02:30:39.404Z,57.14
2018-07-02T02:33:09.335Z,57.14
2018-07-02T02:35:38.577Z,58.04
2018-07-02T02:38:08.151Z,57.46
2018-07-02T02:40:36.849Z,57.50
2018-07-02T02:43:06.515Z,57.59
2018-07-02T02:45:36.263Z,56.47
2018-07-02T02:48:05.379Z,57.35
2018-07-02T02:50:34.454Z,58.88
2018-07-02T02:53:03.241Z,57.80
2018-07-02T02:55:32.623Z,58.51
2018-07-02T02:58:01.836Z,59.61
2018-07-02T03:00:34.669Z,58.58
2018-07-02T03:03:04.709Z,58.54
2018-07-02T03:05:33.614Z,58.69
2018-07-02T03:08:04.105Z,58.78
2018-07-02T03:10:33.034Z,58.00
2018-07-02T03:13:02.103Z,58.52
2018-07-02T03:15:31.550Z,58.27
2018-07-02T03:18:01.869Z,57.19
2018-07-02T03:20:32.312Z,57.40
2018-07-02T03:23:02.138Z,58.05
2018-07-02T03:25:31.282Z,57.43
2018-07-02T03:28:01.199Z,56.51
2018-07-02T03:30:31.446Z,57.54
2018-07-02T03:33:00.765Z,56.47
2018-07-02T03:35:29.870Z,56.50
2018-07-02T03:37:58.725Z,56.36
2018-07-02T03:40:28.177Z,58.49
2018-07-02T03:42:56.597Z,59.00
2018-07-02T03:45:25.025Z,59.74
2018-07-02T03:47:53.435Z,60.47
2018-07-02T03:50:21.881Z,60.32
2018-07-02T03:52:50.308Z,60.52
2018-07-02T03:55:18.823Z,61.77
2018-07-02T03:57:47.300Z,61.54
2018-07-02T04:00:15.865Z,61.51
2018-07-02T04:02:44.308Z,61.93
2018-07-02T04:05:12.769Z,64.97
2018-07-02T04:07:41.201Z,66.19
2018-07-02T04:10:09.605Z,64.61
2018-07-02T04:12:38.013Z,65.00
2018-07-02T04:15:06.620Z,63.29
2018-07-02T04:17:35.025Z,63.99
2018-07-02T04:20:03.496Z,63.54
2018-07-02T04:22:31.998Z,64.08
2018-07-02T04:25:00.389Z,63.98
2018-07-02T04:27:28.781Z,63.58
2018-07-02T04:29:57.241Z,62.38
2018-07-02T04:32:25.694Z,60.90
2018-07-02T04:34:54.117Z,58.81
2018-07-02T04:37:22.578Z,58.52
2018-07-02T04:39:51.057Z,57.35
2018-07-02T04:42:19.494Z,55.82
2018-07-02T04:44:47.957Z,55.18
2018-07-02T04:47:16.354Z,53.33
2018-07-02T04:49:44.789Z,54.25
2018-07-02T04:52:13.170Z,53.78
2018-07-02T04:54:41.588Z,52.54
2018-07-02T04:57:10.586Z,52.24
2018-07-02T04:59:39.064Z,52.08
2018-07-02T05:02:07.520Z,52.99
2018-07-02T05:04:35.980Z,53.58
2018-07-02T05:07:04.428Z,52.88
2018-07-02T05:09:32.854Z,53.10
2018-07-02T05:12:01.293Z,53.92
2018-07-02T05:14:29.750Z,55.18
2018-07-02T05:16:58.162Z,55.72
2018-07-02T05:19:26.668Z,55.87
2018-07-02T05:21:55.174Z,55.92
2018-07-02T05:24:23.590Z,53.33
2018-07-02T05:26:52.098Z,53.48
2018-07-02T05:29:20.512Z,53.37
2018-07-02T05:31:48.891Z,52.26
2018-07-02T05:34:17.344Z,51.00
2018-07-02T05:36:45.742Z,51.48
2018-07-02T05:39:14.374Z,49.56
2018-07-02T05:41:42.877Z,48.06
2018-07-02T05:44:11.300Z,46.84
2018-07-02T05:46:39.713Z,45.13
2018-07-02T05:49:08.143Z,46.04
2018-07-02T05:51:36.528Z,45.43
2018-07-02T05:54:04.997Z,44.69
2018-07-02T05:56:33.399Z,45.12
2018-07-02T05:59:01.896Z,45.63
2018-07-02T06:01:30.393Z,45.64
2018-07-02T06:03:58.865Z,45.02
2018-07-02T06:06:27.460Z,44.00
2018-07-02T06:08:55.905Z,44.86
2018-07-02T06:11:30.930Z,43.01
2018-07-02T06:13:59.339Z,41.95
2018-07-02T06:16:27.768Z,42.10
2018-07-02T06:19:00.088Z,42.24
2018-07-02T06:21:28.473Z,40.86
2018-07-02T06:23:56.909Z,42.11
2018-07-02T06:26:25.326Z,41.13
2018-07-02T06:28:53.773Z,41.78
2018-07-02T06:31:22.177Z,41.47
2018-07-02T06:33:50.665Z,39.96
2018-07-02T06:36:20.069Z,40.50
2018-07-02T06:38:48.901Z,40.45
2018-07-02T06:41:17.398Z,40.07
2018-07-02T06:43:45.773Z,40.52
2018-07-02T06:46:14.199Z,41.55
2018-07-02T06:48:42.617Z,38.86
2018-07-02T06:51:11.049Z,40.27
2018-07-02T06:53:39.500Z,39.44
2018-07-02T06:56:07.943Z,39.19
2018-07-02T06:58:36.455Z,39.71
2018-07-02T07:01:04.833Z,38.69
2018-07-02T07:03:33.239Z,39.55
2018-07-02T07:06:01.746Z,38.64
2018-07-02T07:08:30.179Z,39.66
2018-07-02T07:10:58.646Z,38.10
2018-07-02T07:13:27.084Z,38.02
2018-07-02T07:15:55.498Z,37.98
2018-07-02T07:18:24.045Z,37.70
2018-07-02T07:20:52.450Z,38.42
2018-07-02T07:23:20.850Z,38.19
2018-07-02T07:25:49.350Z,39.16
2018-07-02T07:28:17.718Z,36.99
2018-07-02T07:30:46.239Z,37.38
2018-07-02T07:33:14.660Z,37.40
2018-07-02T07:35:43.077Z,38.14
2018-07-02T07:38:11.482Z,37.14
2018-07-02T07:40:40.034Z,37.47
2018-07-02T07:43:08.429Z,36.85
2018-07-02T07:45:36.860Z,37.27
2018-07-02T07:48:05.397Z,37.41
2018-07-02T07:50:33.957Z,38.22
2018-07-02T07:53:02.358Z,36.31
2018-07-02T07:55:30.912Z,37.30
2018-07-02T07:57:59.371Z,37.43
2018-07-02T08:00:27.921Z,36.35
2018-07-02T08:02:56.380Z,36.31
2018-07-02T08:05:24.883Z,35.85
2018-07-02T08:07:53.358Z,36.41
2018-07-02T08:10:21.822Z,36.21
2018-07-02T08:12:50.264Z,36.37
2018-07-02T08:15:18.670Z,35.92
2018-07-02T08:17:47.075Z,36.59
2018-07-02T08:20:15.524Z,37.24
2018-07-02T08:22:44.074Z,36.88
2018-07-02T08:25:12.509Z,36.92
2018-07-02T08:27:41.018Z,36.26
2018-07-02T08:30:10.344Z,35.82
2018-07-02T08:32:38.777Z,36.26
2018-07-02T08:35:07.244Z,35.04
2018-07-02T08:37:35.685Z,35.21
2018-07-02T08:40:04.852Z,34.50
2018-07-02T08:42:33.300Z,34.79
2018-07-02T08:45:01.808Z,35.31
2018-07-02T08:47:30.901Z,33.73
2018-07-02T08:49:59.403Z,34.81
2018-07-02T08:52:27.897Z,34.47
2018-07-02T08:54:56.297Z,34.89
2018-07-02T08:57:24.733Z,34.18
2018-07-02T08:59:53.138Z,34.83
2018-07-02T09:02:21.638Z,34.14
2018-07-02T09:04:50.013Z,34.85
2018-07-02T09:07:18.482Z,34.78
2018-07-02T09:09:47.035Z,33.94
2018-07-02T09:12:15.467Z,34.30
2018-07-02T09:14:43.901Z,35.10
2018-07-02T09:17:12.338Z,34.95
2018-07-02T09:19:40.734Z,33.87
2018-07-02T09:22:09.166Z,34.49
2018-07-02T09:24:37.582Z,34.41
2018-07-02T09:27:06.584Z,32.65
2018-07-02T09:29:35.693Z,32.66
2018-07-02T09:32:04.177Z,33.38
2018-07-02T09:34:32.819Z,33.97
2018-07-02T09:37:01.213Z,33.46
2018-07-02T09:39:29.654Z,33.40
2018-07-02T09:41:58.082Z,32.99
2018-07-02T09:44:26.469Z,32.57
2018-07-02T09:46:54.959Z,33.41
2018-07-02T09:49:24.456Z,32.41
2018-07-02T09:51:52.824Z,33.41
2018-07-02T09:54:21.205Z,32.07
2018-07-02T09:56:49.774Z,32.16
2018-07-02T09:59:18.275Z,31.62
2018-07-02T10:01:46.682Z,32.65
2018-07-02T10:04:15.108Z,32.63
2018-07-02T10:06:43.562Z,32.76
2018-07-02T10:09:13.448Z,32.74
2018-07-02T10:11:41.856Z,31.93
2018-07-02T10:14:10.253Z,33.20
2018-07-02T10:16:38.784Z,33.55
2018-07-02T10:19:07.226Z,31.79
2018-07-02T10:21:35.681Z,32.05
2018-07-02T10:24:04.142Z,30.87
2018-07-02T10:26:32.590Z,29.99
2018-07-02T10:29:01.021Z,32.17
2018-07-02T10:31:29.464Z,29.10
2018-07-02T10:33:57.873Z,29.09
2018-07-02T10:36:26.302Z,29.70
2018-07-02T10:38:54.737Z,29.45
2018-07-02T10:41:23.144Z,29.53
2018-07-02T10:43:51.927Z,29.91
2018-07-02T10:46:20.357Z,29.23
2018-07-02T10:48:48.720Z,29.53
2018-07-02T10:51:17.178Z,30.80
2018-07-02T10:53:45.568Z,31.09
2018-07-02T10:56:13.993Z,29.70
2018-07-02T10:58:43.055Z,28.72
2018-07-02T11:01:11.473Z,30.13
2018-07-02T11:03:40.082Z,30.50
2018-07-02T11:06:08.509Z,31.26
2018-07-02T11:08:36.961Z,30.04
2018-07-02T11:11:05.368Z,29.56
2018-07-02T11:13:33.785Z,29.17
2018-07-02T11:16:02.173Z,28.27
2018-07-02T11:18:30.650Z,29.28
2018-07-02T11:20:59.204Z,29.21
2018-07-02T11:23:27.629Z,28.89
2018-07-02T11:25:56.081Z,28.04
2018-07-02T11:28:24.552Z,29.29
2018-07-02T11:30:53.123Z,29.76
2018-07-02T11:33:21.548Z,29.38
2018-07-02T11:35:49.981Z,29.53
2018-07-02T11:38:18.700Z,28.62
2018-07-02T11:40:47.146Z,30.74
2018-07-02T11:43:15.634Z,29.01
2018-07-02T11:45:44.760Z,26.62
2018-07-02T11:48:13.198Z,28.55
2018-07-02T11:50:41.610Z,27.90
2018-07-02T11:53:10.091Z,29.39
2018-07-02T11:55:38.493Z,27.58
2018-07-02T11:58:07.088Z,27.61
2018-07-02T12:00:35.572Z,27.18
2018-07-02T12:03:04.133Z,26.79
2018-07-02T12:05:33.559Z,26.42
2018-07-02T12:08:01.985Z,25.97
2018-07-02T12:10:30.417Z,27.33
2018-07-02T12:12:58.846Z,29.51
2018-07-02T12:15:27.349Z,28.99
2018-07-02T12:17:55.837Z,27.88
2018-07-02T12:20:24.261Z,28.11
2018-07-02T12:22:52.741Z,27.76
2018-07-02T12:25:21.175Z,28.64
2018-07-02T12:27:50.570Z,25.95
2018-07-02T12:30:18.987Z,26.37
2018-07-02T12:32:47.393Z,25.19
2018-07-02T12:35:16.832Z,26.77
2018-07-02T12:37:45.237Z,26.47
2018-07-02T12:40:13.639Z,25.26
2018-07-02T12:42:42.134Z,26.55
2018-07-02T12:45:10.738Z,24.80
2018-07-02T12:47:39.144Z,25.12
2018-07-02T12:50:08.033Z,23.82
2018-07-02T12:52:36.501Z,24.26
2018-07-02T12:55:05.010Z,25.08
2018-07-02T12:57:34.474Z,24.78
2018-07-02T13:00:02.898Z,25.31
2018-07-02T13:02:31.322Z,25.51
2018-07-02T13:04:59.761Z,24.33
2018-07-02T13:07:28.262Z,24.45
2018-07-02T13:09:56.705Z,23.15
2018-07-02T13:12:25.122Z,21.32
2018-07-02T13:14:53.672Z,20.58
2018-07-02T13:17:22.053Z,19.47
2018-07-02T13:19:50.508Z,17.88
2018-07-02T13:22:19.074Z,18.19
2018-07-02T13:24:47.511Z,17.88
2018-07-02T13:27:15.929Z,17.85
2018-07-02T13:29:44.345Z,18.59
2018-07-02T13:32:12.808Z,16.48
2018-07-02T13:34:41.202Z,17.00
2018-07-02T13:37:09.677Z,17.75
2018-07-02T13:39:38.124Z,16.76
2018-07-02T13:42:06.541Z,17.62
2018-07-02T13:44:34.952Z,16.72
2018-07-02T13:47:03.410Z,14.92
2018-07-02T13:49:31.856Z,15.67
2018-07-02T13:52:00.257Z,14.77
2018-07-02T13:54:28.713Z,14.91
2018-07-02T13:56:57.107Z,13.97
2018-07-02T13:59:25.588Z,14.80
2018-07-02T14:01:53.982Z,14.68
2018-07-02T14:04:22.539Z,16.46
2018-07-02T14:06:51.014Z,15.12
2018-07-02T14:09:19.441Z,14.81
2018-07-02T14:11:47.834Z,13.77
2018-07-02T14:14:16.292Z,15.61
2018-07-02T14:16:44.703Z,15.09
2018-07-02T14:19:13.155Z,15.44
2018-07-02T14:21:41.630Z,14.61
2018-07-02T14:24:10.113Z,14.63
2018-07-02T14:26:38.581Z,14.00
2018-07-02T14:29:07.062Z,13.29
2018-07-02T14:31:35.513Z,14.36
2018-07-02T14:34:03.943Z,15.62
2018-07-02T14:36:32.383Z,13.55
2018-07-02T14:39:00.866Z,14.77
2018-07-02T14:41:29.287Z,14.58
2018-07-02T14:43:57.684Z,14.82
2018-07-02T14:46:26.097Z,14.65
2018-07-02T14:48:54.537Z,13.84
2018-07-02T14:51:23.289Z,14.66
2018-07-02T14:53:51.682Z,13.82
2018-07-02T14:56:20.079Z,14.34
2018-07-02T14:58:48.542Z,13.50
2018-07-02T15:01:16.961Z,14.42
2018-07-02T15:03:45.421Z,15.03
2018-07-02T15:06:13.817Z,14.28
2018-07-02T15:08:42.222Z,13.14
2018-07-02T15:11:10.772Z,14.38
2018-07-02T15:13:39.157Z,14.38
2018-07-02T15:16:07.621Z,13.24
2018-07-02T15:18:36.116Z,14.29
2018-07-02T15:21:04.701Z,14.72
2018-07-02T15:23:33.128Z,13.87
2018-07-02T15:26:01.600Z,13.21
2018-07-02T15:28:30.015Z,13.20
2018-07-02T15:30:58.428Z,13.70
2018-07-02T15:33:26.809Z,14.82
2018-07-02T15:35:55.222Z,14.18
2018-07-02T15:38:23.630Z,13.23
2018-07-02T15:40:52.042Z,13.46
2018-07-02T15:43:20.457Z,12.69
2018-07-02T15:45:48.900Z,14.68
2018-07-02T15:48:17.366Z,14.32
2018-07-02T15:50:45.766Z,14.28
2018-07-02T15:53:14.241Z,14.58
2018-07-02T15:55:42.664Z,13.80
2018-07-02T15:58:11.105Z,14.82
2018-07-02T16:00:39.557Z,14.03
2018-07-02T16:03:08.093Z,15.09
2018-07-02T16:05:36.505Z,14.26
2018-07-02T16:08:04.921Z,15.26
2018-07-02T16:10:33.373Z,14.77
2018-07-02T16:13:01.991Z,14.38
2018-07-02T16:15:30.853Z,14.79
2018-07-02T16:17:59.241Z,14.77
2018-07-02T16:20:27.706Z,15.22
2018-07-02T16:22:56.174Z,15.66
2018-07-02T16:25:24.517Z,15.57
2018-07-02T16:27:52.892Z,15.81
2018-07-02T16:30:21.317Z,17.86
2018-07-02T16:32:49.735Z,18.42
2018-07-02T16:35:18.157Z,20.28
2018-07-02T16:37:46.530Z,20.61
2018-07-02T16:40:14.915Z,21.76
2018-07-02T16:42:43.324Z,22.13
2018-07-02T16:45:11.933Z,21.61
2018-07-02T16:47:40.306Z,22.25
2018-07-02T16:50:09.682Z,21.77
2018-07-02T16:52:38.169Z,22.35
2018-07-02T16:55:06.582Z,20.99
2018-07-02T16:57:35.034Z,21.39
2018-07-02T17:00:03.514Z,20.40
2018-07-02T17:02:31.909Z,19.84
2018-07-02T17:05:00.363Z,20.68
2018-07-02T17:07:28.773Z,20.04
2018-07-02T17:09:57.246Z,21.73
2018-07-02T17:12:25.642Z,21.99
2018-07-02T17:14:54.087Z,20.85
2018-07-02T17:17:22.606Z,21.35
2018-07-02T17:19:51.037Z,20.31
2018-07-02T17:22:19.534Z,21.44
2018-07-02T17:24:47.973Z,21.90
2018-07-02T17:27:16.509Z,20.91
2018-07-02T17:29:44.905Z,21.96
2018-07-02T17:32:14.424Z,21.51
2018-07-02T17:34:42.896Z,22.52
2018-07-02T17:37:11.327Z,21.84
2018-07-02T17:39:39.750Z,22.07
2018-07-02T17:42:08.205Z,22.29
2018-07-02T17:44:36.701Z,21.40
2018-07-02T17:47:05.337Z,22.56
2018-07-02T17:49:33.757Z,22.43
2018-07-02T17:52:02.445Z,23.16
2018-07-02T17:54:30.840Z,22.95
2018-07-02T17:56:59.249Z,22.71
2018-07-02T17:59:27.809Z,22.30
2018-07-02T18:01:56.322Z,21.59
2018-07-02T18:04:24.849Z,21.41
2018-07-02T18:06:53.270Z,18.29
2018-07-02T18:09:21.709Z,17.59
2018-07-02T18:11:50.181Z,18.01
2018-07-02T18:14:19.464Z,18.05
2018-07-02T18:16:47.961Z,16.94
2018-07-02T18:19:16.374Z,14.45
2018-07-02T18:21:44.801Z,15.50
2018-07-02T18:24:13.201Z,14.60
2018-07-02T18:26:41.670Z,14.27
2018-07-02T18:29:10.201Z,15.12
2018-07-02T18:31:38.654Z,15.14
2018-07-02T18:34:07.114Z,14.78
2018-07-02T18:36:35.540Z,16.82
2018-07-02T18:39:06.470Z,19.49
2018-07-02T18:41:34.982Z,22.96
2018-07-02T18:44:03.413Z,24.04
2018-07-02T18:46:31.811Z,25.35
2018-07-02T18:49:00.319Z,27.00
2018-07-02T18:51:29.175Z,26.16
2018-07-02T18:53:57.613Z,27.52
2018-07-02T18:56:26.081Z,27.92
2018-07-02T18:58:54.489Z,30.58
2018-07-02T19:01:23.121Z,30.61
2018-07-02T19:03:51.703Z,26.17
2018-07-02T19:06:20.183Z,26.63
2018-07-02T19:08:48.659Z,26.57
2018-07-02T19:11:18.146Z,29.04
2018-07-02T19:13:46.615Z,30.46
2018-07-02T19:16:15.125Z,30.49
2018-07-02T19:18:43.509Z,31.21
2018-07-02T19:21:13.082Z,31.68
2018-07-02T19:23:41.484Z,30.69
2018-07-02T19:26:09.910Z,31.77
2018-07-02T19:28:38.379Z,31.92
2018-07-02T19:31:06.838Z,31.79
2018-07-02T19:33:35.273Z,32.89
2018-07-02T19:36:03.689Z,32.11
2018-07-02T19:38:35.951Z,32.38
2018-07-02T19:41:04.528Z,32.61
2018-07-02T19:43:32.914Z,33.00
2018-07-02T19:46:01.379Z,32.72
2018-07-02T19:51:02.432Z,33.81
2018-07-02T19:53:30.877Z,34.30
2018-07-02T19:55:59.317Z,34.27
2018-07-02T19:58:27.794Z,35.07
2018-07-02T20:00:56.495Z,35.32
2018-07-02T20:03:25.014Z,34.86
2018-07-02T20:05:53.405Z,34.88
2018-07-02T20:08:27.494Z,35.11
2018-07-02T20:10:55.925Z,34.81
2018-07-02T20:13:24.425Z,35.03
2018-07-02T20:15:52.803Z,34.95
2018-07-02T20:18:21.215Z,35.44
2018-07-02T20:20:49.826Z,36.34
2018-07-02T20:23:18.223Z,35.81
2018-07-02T20:25:46.629Z,36.11
2018-07-02T20:28:15.048Z,36.66
2018-07-02T20:30:43.421Z,36.98
2018-07-02T20:33:11.838Z,37.23
2018-07-02T20:35:40.269Z,38.40
2018-07-02T20:38:08.699Z,37.61
2018-07-02T20:40:37.143Z,38.18
2018-07-02T20:43:05.601Z,37.28
2018-07-02T20:45:34.078Z,37.23
2018-07-02T20:48:02.510Z,37.03
2018-07-02T20:50:30.914Z,38.54
2018-07-02T20:52:59.314Z,37.12
2018-07-02T20:55:27.774Z,37.66
2018-07-02T20:57:56.149Z,37.24
2018-07-02T21:00:27.955Z,37.46
2018-07-02T21:02:56.365Z,36.98
2018-07-02T21:05:24.824Z,38.13
2018-07-02T21:07:53.285Z,37.93
2018-07-02T21:10:21.698Z,37.98
2018-07-02T21:12:50.146Z,38.26
2018-07-02T21:15:18.664Z,37.87
2018-07-02T21:17:47.085Z,38.07
2018-07-02T21:20:15.561Z,38.75
2018-07-02T21:22:44.177Z,38.09
2018-07-02T21:25:12.570Z,38.28
2018-07-02T21:27:41.042Z,39.12
2018-07-02T21:30:10.144Z,38.91
2018-07-02T21:32:38.992Z,39.09
2018-07-02T21:35:08.046Z,39.69
2018-07-02T21:37:36.526Z,39.00
2018-07-02T21:40:05.224Z,39.54
2018-07-02T21:42:33.686Z,39.43
2018-07-02T21:45:02.057Z,39.43
2018-07-02T21:47:30.556Z,39.81
2018-07-02T21:49:58.970Z,40.75
2018-07-02T21:52:27.385Z,40.54
2018-07-02T21:54:55.813Z,41.11
2018-07-02T21:57:24.271Z,42.29
2018-07-02T21:59:52.713Z,43.39
2018-07-02T22:02:21.114Z,43.90
2018-07-02T22:04:49.534Z,44.62
2018-07-02T22:07:17.925Z,46.10
2018-07-02T22:09:46.331Z,47.85
2018-07-02T22:12:14.715Z,46.65
2018-07-02T22:14:43.115Z,48.66
2018-07-02T22:17:11.541Z,48.44
2018-07-02T22:19:39.937Z,46.94
2018-07-02T22:22:08.341Z,48.63
2018-07-02T22:24:36.806Z,48.56
2018-07-02T22:27:05.329Z,48.93
2018-07-02T22:29:33.709Z,49.07
2018-07-02T22:32:02.087Z,49.88
2018-07-02T22:34:30.537Z,51.67
2018-07-02T22:36:58.921Z,52.20
2018-07-02T22:39:27.321Z,52.69
2018-07-02T22:41:55.693Z,53.86
2018-07-02T22:44:24.149Z,53.69
2018-07-02T22:46:52.509Z,52.78
2018-07-02T22:49:20.896Z,52.32
2018-07-02T22:51:49.337Z,53.14
2018-07-02T22:54:17.766Z,53.97
2018-07-02T22:56:46.201Z,54.65
2018-07-02T22:59:14.619Z,56.25
2018-07-02T23:01:43.111Z,56.63
2018-07-02T23:04:11.529Z,57.17
2018-07-02T23:06:39.985Z,57.38
2018-07-02T23:09:09.566Z,57.77
2018-07-02T23:11:38.081Z,58.49
2018-07-02T23:14:06.686Z,57.58
2018-07-02T23:16:35.073Z,57.06
2018-07-02T23:19:03.468Z,56.95
2018-07-02T23:21:31.841Z,57.41
2018-07-02T23:24:00.321Z,57.14
2018-07-02T23:26:28.778Z,57.58
2018-07-02T23:28:57.254Z,58.56
2018-07-02T23:31:25.654Z,58.48
2018-07-02T23:33:54.053Z,59.44
2018-07-02T23:36:22.465Z,59.79
2018-07-02T23:38:50.893Z,61.09
2018-07-02T23:41:19.347Z,61.04
2018-07-02T23:43:47.750Z,60.88
2018-07-02T23:46:16.117Z,60.78
2018-07-02T23:48:44.521Z,61.88
2018-07-02T23:51:12.909Z,62.10
2018-07-02T23:53:41.302Z,62.40
2018-07-02T23:56:09.709Z,63.41
2018-07-02T23:58:38.097Z,63.55
